Time;durP1;ratioP1;P1;durP2;ratioP2;P2;SDS_P1;SDS_P2;PMS_P1;PMS_P2;Temp;Humidity;BMP_temperature;BMP_pressure;BME280_temperature;BME280_humidity;BME280_pressure;Samples;Min_cycle;Max_cycle;Signal;HPM_P1;HPM_P2
2023/05/13 00:00:30;;;;;;;;;;;;;;;12.83;100.00;101986.31;10540787;28;20394;-63
2023/05/13 00:05:32;;;;;;;;;;;;;;;12.76;100.00;101979.66;10541085;28;19924;-63
2023/05/13 00:10:34;;;;;;;;;;;;;;;12.27;100.00;101979.31;10540221;28;19928;-63
2023/05/13 00:15:37;;;;;;;;;;;;;;;12.52;100.00;101981.66;10537895;28;19951;-62
2023/05/13 00:20:39;;;;;;;;;;;;;;;12.30;100.00;101979.16;10540221;28;19928;-62
2023/05/13 00:25:43;;;;;;;;;;;;;;;12.30;100.00;101973.91;10555711;28;19931;-63
2023/05/13 00:30:45;;;;;;;;;;;;;;;12.21;100.00;101972.56;10540026;28;19928;-62
2023/05/13 00:35:47;;;;;;;;;;;;;;;12.26;100.00;101980.25;10539462;28;19977;-62
2023/05/13 00:40:49;;;;;;;;;;;;;;;11.97;100.00;101979.78;10522574;28;19924;-62
2023/05/13 00:45:52;;;;;;;;;;;;;;;12.33;100.00;101979.03;10539680;28;19989;-62
2023/05/13 00:50:54;;;;;;;;;;;;;;;12.17;100.00;101981.53;10539062;28;20030;-62
2023/05/13 00:55:56;;;;;;;;;;;;;;;12.15;100.00;101980.72;10536611;28;19977;-62
2023/05/13 01:00:58;;;;;;;;;;;;;;;12.06;100.00;101981.97;10540069;28;19924;-62
2023/05/13 01:06:11;;;;;;;;;;;;;;;11.99;100.00;101974.47;10538799;28;19965;-62
2023/05/13 01:11:14;;;;;;;;;;;;;;;11.99;100.00;101980.56;10553983;28;20037;-62
2023/05/13 01:16:22;;;;;;;;;;;;;;;11.88;100.00;101974.91;10552745;28;19924;-62
2023/05/13 01:21:25;;;;;;;;;;;;;;;11.72;100.00;101977.34;10560863;28;20391;-62
2023/05/13 01:26:28;;;;;;;;;;;;;;;11.59;100.00;101984.88;10547535;28;19925;-62
2023/05/13 01:31:30;;;;;;;;;;;;;;;11.55;100.00;101985.06;10546364;28;19969;-63
2023/05/13 01:36:32;;;;;;;;;;;;;;;11.51;100.00;101976.47;10545428;28;19924;-62
2023/05/13 01:41:34;;;;;;;;;;;;;;;11.43;100.00;101989.06;10560778;28;19924;-62
2023/05/13 01:46:37;;;;;;;;;;;;;;;11.55;100.00;101985.06;10546667;28;19973;-63
2023/05/13 01:51:40;;;;;;;;;;;;;;;11.41;100.00;101976.00;10544115;28;19947;-62
2023/05/13 01:56:42;;;;;;;;;;;;;;;11.46;100.00;101981.91;10544104;28;20414;-63
2023/05/13 02:01:44;;;;;;;;;;;;;;;11.38;100.00;101970.94;10545541;28;19969;-62
2023/05/13 02:06:47;;;;;;;;;;;;;;;11.23;100.00;101968.91;10555160;22;19924;-63
2023/05/13 02:11:50;;;;;;;;;;;;;;;11.31;100.00;101977.31;10542383;28;19977;-63
2023/05/13 02:16:52;;;;;;;;;;;;;;;11.10;100.00;101979.91;10544189;28;19932;-63
2023/05/13 02:21:54;;;;;;;;;;;;;;;11.11;100.00;101981.63;10544315;28;19970;-63
2023/05/13 02:26:57;;;;;;;;;;;;;;;11.07;100.00;101989.69;10527102;28;19935;-63
2023/05/13 02:31:59;;;;;;;;;;;;;;;11.06;100.00;101986.22;10543524;28;19928;-63
2023/05/13 02:37:02;;;;;;;;;;;;;;;10.90;100.00;101991.19;10542692;28;20344;-63
2023/05/13 02:42:04;;;;;;;;;;;;;;;10.80;100.00;101983.78;10543909;28;20280;-63
2023/05/13 02:47:06;;;;;;;;;;;;;;;10.70;100.00;101978.03;10543563;28;20329;-63
2023/05/13 02:52:08;;;;;;;;;;;;;;;10.76;100.00;101981.28;10542035;28;19924;-63
2023/05/13 02:57:11;;;;;;;;;;;;;;;10.61;100.00;101976.63;10523557;28;20306;-63
2023/05/13 03:02:13;;;;;;;;;;;;;;;10.90;100.00;101974.63;10543599;28;19931;-63
2023/05/13 03:07:15;;;;;;;;;;;;;;;10.84;100.00;101973.09;10542504;28;20275;-63
2023/05/13 03:12:18;;;;;;;;;;;;;;;10.66;100.00;101977.31;10541946;28;19928;-63
2023/05/13 03:17:20;;;;;;;;;;;;;;;10.59;100.00;101975.81;10541208;28;19978;-63
2023/05/13 03:22:22;;;;;;;;;;;;;;;10.59;100.00;101975.81;10542260;28;20363;-63
2023/05/13 03:27:24;;;;;;;;;;;;;;;10.41;100.00;101975.63;10542436;28;19928;-63
2023/05/13 03:32:29;;;;;;;;;;;;;;;10.47;100.00;101982.38;10541133;28;19932;-63
2023/05/13 03:37:31;;;;;;;;;;;;;;;10.43;100.00;101980.81;10539761;28;19978;-63
2023/05/13 03:42:34;;;;;;;;;;;;;;;10.55;100.00;101982.94;10540725;28;20378;-63
2023/05/13 03:47:38;;;;;;;;;;;;;;;10.38;100.00;101988.81;10539064;28;19924;-63
2023/05/13 03:52:40;;;;;;;;;;;;;;;10.28;100.00;101990.06;10541064;28;20429;-63
2023/05/13 03:57:48;;;;;;;;;;;;;;;10.47;100.00;101987.63;10537841;28;19931;-63
2023/05/13 04:02:50;;;;;;;;;;;;;;;10.41;100.00;101993.09;10540743;28;19931;-63
2023/05/13 04:07:52;;;;;;;;;;;;;;;10.23;100.00;101989.38;10540889;28;19924;-63
2023/05/13 04:12:54;;;;;;;;;;;;;;;10.25;100.00;101994.56;10539468;28;20370;-63
2023/05/13 04:17:57;;;;;;;;;;;;;;;10.39;100.00;101990.53;10537370;28;19928;-63
2023/05/13 04:23:00;;;;;;;;;;;;;;;10.37;100.00;101992.38;10540271;28;19924;-63
2023/05/13 04:28:02;;;;;;;;;;;;;;;10.32;100.00;101989.06;10540116;28;20432;-63
2023/05/13 04:33:05;;;;;;;;;;;;;;;10.36;100.00;101997.66;10539198;28;19928;-63
2023/05/13 04:38:08;;;;;;;;;;;;;;;10.48;100.00;101991.13;10539092;28;19931;-63
2023/05/13 04:43:10;;;;;;;;;;;;;;;10.54;100.00;101994.34;10538103;28;19978;-63
2023/05/13 04:48:13;;;;;;;;;;;;;;;10.63;100.00;102008.84;10539735;28;19946;-63
2023/05/13 04:53:15;;;;;;;;;;;;;;;10.80;100.00;102002.13;10542838;28;19966;-63
2023/05/13 04:58:17;;;;;;;;;;;;;;;10.95;100.00;102007.59;10546606;28;19927;-63
2023/05/13 05:03:20;;;;;;;;;;;;;;;10.96;100.00;102013.69;10548354;28;19924;-63
2023/05/13 05:08:22;;;;;;;;;;;;;;;10.85;100.00;102015.88;10547588;28;19924;-63
2023/05/13 05:13:24;;;;;;;;;;;;;;;10.88;100.00;102021.00;10540450;28;19924;-63
2023/05/13 05:18:26;;;;;;;;;;;;;;;10.97;100.00;102025.88;10536866;28;19927;-63
2023/05/13 05:23:29;;;;;;;;;;;;;;;11.28;100.00;102027.25;10545189;28;20332;-63
2023/05/13 05:28:31;;;;;;;;;;;;;;;11.44;100.00;102036.22;10544368;28;19932;-63
2023/05/13 05:33:34;;;;;;;;;;;;;;;11.67;100.00;102037.03;10532626;28;19929;-63
2023/05/13 05:38:37;;;;;;;;;;;;;;;12.10;100.00;102034.34;10487481;28;19935;-63
2023/05/13 05:43:39;;;;;;;;;;;;;;;12.23;100.00;102035.50;10505688;28;20074;-63
2023/05/13 05:48:41;;;;;;;;;;;;;;;12.24;100.00;102032.81;10542896;28;19928;-63
2023/05/13 05:53:43;;;;;;;;;;;;;;;12.35;100.00;102037.59;10516599;28;19924;-63
2023/05/13 05:58:46;;;;;;;;;;;;;;;12.31;100.00;102033.41;10505898;28;19924;-63
2023/05/13 06:03:48;;;;;;;;;;;;;;;12.30;100.00;102036.09;10511733;28;19933;-63
2023/05/13 06:08:52;;;;;;;;;;;;;;;12.76;100.00;102034.84;10515393;28;19999;-63
2023/05/13 06:13:56;;;;;;;;;;;;;;;12.85;100.00;102038.81;10539177;28;19931;-63
2023/05/13 06:18:58;;;;;;;;;;;;;;;13.07;100.00;102045.69;10545299;28;19924;-63
2023/05/13 06:24:01;;;;;;;;;;;;;;;13.35;100.00;102045.22;10544496;28;19924;-63
2023/05/13 06:29:04;;;;;;;;;;;;;;;13.49;100.00;102048.00;10544332;28;19986;-63
2023/05/13 06:34:06;;;;;;;;;;;;;;;13.41;100.00;102047.53;10544834;28;19974;-63
2023/05/13 06:39:11;;;;;;;;;;;;;;;13.24;100.00;102050.13;10544092;28;19924;-63
2023/05/13 06:44:14;;;;;;;;;;;;;;;13.58;100.00;102051.94;10526763;28;19954;-63
2023/05/13 06:49:16;;;;;;;;;;;;;;;13.84;100.00;102047.16;10543447;28;20298;-63
2023/05/13 06:54:18;;;;;;;;;;;;;;;14.11;97.81;102047.50;10543217;28;19993;-64
2023/05/13 06:59:21;;;;;;;;;;;;;;;13.91;97.58;102057.28;10543138;28;19928;-64
2023/05/13 07:04:23;;;;;;;;;;;;;;;13.62;100.00;102055.31;10543603;28;19974;-64
2023/05/13 07:09:26;;;;;;;;;;;;;;;14.49;99.09;102048.13;10542772;28;20394;-64
2023/05/13 07:14:28;;;;;;;;;;;;;;;15.37;90.36;102042.41;10541944;28;20300;-64
2023/05/13 07:19:30;;;;;;;;;;;;;;;16.18;87.62;102049.09;10541815;28;19924;-64
2023/05/13 07:24:32;;;;;;;;;;;;;;;16.25;83.54;102047.78;10542155;28;19970;-64
2023/05/13 07:29:35;;;;;;;;;;;;;;;16.48;80.46;102039.25;10541987;28;20268;-64
2023/05/13 07:34:37;;;;;;;;;;;;;;;16.74;79.61;102042.03;10542105;28;19978;-64
2023/05/13 07:39:39;;;;;;;;;;;;;;;16.55;75.96;102046.81;10542263;28;19931;-64
2023/05/13 07:44:41;;;;;;;;;;;;;;;17.12;77.66;102041.41;10541272;28;19924;-64
2023/05/13 07:49:44;;;;;;;;;;;;;;;18.23;74.42;102051.66;10541067;28;20290;-64
2023/05/13 07:54:46;;;;;;;;;;;;;;;17.98;73.38;102051.53;10541687;28;19924;-64
2023/05/13 07:59:48;;;;;;;;;;;;;;;17.84;72.14;102043.69;10540914;28;20333;-64
2023/05/13 08:04:51;;;;;;;;;;;;;;;18.70;73.61;102036.81;10540767;28;19924;-65
2023/05/13 08:09:53;;;;;;;;;;;;;;;18.77;71.13;102039.88;10540538;28;19998;-65
2023/05/13 08:14:55;;;;;;;;;;;;;;;19.48;71.96;102046.13;10540563;28;19924;-65
2023/05/13 08:19:57;;;;;;;;;;;;;;;19.43;69.99;102048.28;10540985;28;19928;-65
2023/05/13 08:25:02;;;;;;;;;;;;;;;19.07;69.52;102042.97;10540646;28;20031;-65
2023/05/13 08:30:04;;;;;;;;;;;;;;;20.07;66.80;102047.00;10540288;28;19924;-65
2023/05/13 08:35:07;;;;;;;;;;;;;;;20.74;67.59;102047.00;10539925;28;20287;-65
2023/05/13 08:40:10;;;;;;;;;;;;;;;20.83;66.30;102048.09;10540622;28;19924;-65
2023/05/13 08:45:12;;;;;;;;;;;;;;;21.26;65.97;102033.88;10540333;28;19924;-65
2023/05/13 08:50:14;;;;;;;;;;;;;;;21.44;66.28;102033.31;10522370;28;19981;-65
2023/05/13 08:55:16;;;;;;;;;;;;;;;20.81;65.31;102030.53;10539976;28;19974;-65
2023/05/13 09:00:18;;;;;;;;;;;;;;;20.90;63.91;102037.78;10521631;28;20260;-64
2023/05/13 09:05:23;;;;;;;;;;;;;;;21.55;59.65;102029.78;10539995;28;19924;-64
2023/05/13 09:10:26;;;;;;;;;;;;;;;21.40;61.79;102032.75;10521503;28;20349;-64
2023/05/13 09:15:28;;;;;;;;;;;;;;;22.42;61.27;102026.72;10521617;28;19939;-64
2023/05/13 09:20:31;;;;;;;;;;;;;;;21.65;59.99;102033.34;10539113;28;19924;-65
2023/05/13 09:25:33;;;;;;;;;;;;;;;22.94;57.87;102024.69;10538961;28;20424;-65
2023/05/13 09:30:37;;;;;;;;;;;;;;;22.51;57.52;102025.91;10539360;28;19970;-65
2023/05/13 09:35:43;;;;;;;;;;;;;;;22.93;59.33;102015.00;10538961;28;19924;-65
2023/05/13 09:40:52;;;;;;;;;;;;;;;23.24;57.23;102019.41;10542967;28;19931;-65
2023/05/13 09:45:54;;;;;;;;;;;;;;;24.61;57.25;102018.00;10546754;28;19924;-65
2023/05/13 09:50:57;;;;;;;;;;;;;;;24.30;55.55;102012.91;10546597;28;19931;-65
2023/05/13 09:56:00;;;;;;;;;;;;;;;24.23;54.61;102008.31;10546396;28;19924;-65
2023/05/13 10:01:02;;;;;;;;;;;;;;;25.00;56.57;102000.78;10545622;28;19925;-65
2023/05/13 10:06:05;;;;;;;;;;;;;;;24.53;53.84;101996.44;10545967;28;19931;-65
2023/05/13 10:11:07;;;;;;;;;;;;;;;25.87;55.36;101993.72;10544930;28;20133;-65
2023/05/13 10:16:09;;;;;;;;;;;;;;;24.51;50.50;101992.22;10526931;28;20378;-65
2023/05/13 10:21:11;;;;;;;;;;;;;;;25.70;53.93;101986.56;10545453;28;19963;-65
2023/05/13 10:26:14;;;;;;;;;;;;;;;25.43;50.45;101976.84;10544604;28;19990;-65
2023/05/13 10:31:16;;;;;;;;;;;;;;;26.81;52.80;101978.41;10545000;28;19928;-65
2023/05/13 10:36:34;;;;;;;;;;;;;;;25.24;53.59;101972.50;10544254;28;19946;-64
2023/05/13 10:41:51;;;;;;;;;;;;;;;26.32;47.28;101973.78;10544796;28;19970;-65
2023/05/13 10:46:55;;;;;;;;;;;;;;;27.03;49.81;101976.06;10544258;28;19924;-64
2023/05/13 10:52:02;;;;;;;;;;;;;;;26.72;49.49;101971.38;10543983;28;19928;-64
2023/05/13 10:57:05;;;;;;;;;;;;;;;27.17;47.82;101966.50;10543551;28;19924;-64
2023/05/13 11:02:23;;;;;;;;;;;;;;;27.43;48.46;101960.94;10543697;28;19931;-65
2023/05/13 11:07:28;;;;;;;;;;;;;;;27.74;48.12;101961.03;10543092;28;19924;-65
2023/05/13 11:12:30;;;;;;;;;;;;;;;27.96;46.60;101961.31;10543444;28;19924;-65
2023/05/13 11:17:33;;;;;;;;;;;;;;;28.79;44.64;101957.13;10543091;28;19943;-65
2023/05/13 11:22:35;;;;;;;;;;;;;;;27.33;45.79;101947.69;10524372;28;19947;-64
2023/05/13 11:27:38;;;;;;;;;;;;;;;27.65;44.46;101948.59;10542602;28;19935;-64
2023/05/13 11:32:53;;;;;;;;;;;;;;;27.73;43.56;101942.38;10541932;28;20375;-65
2023/05/13 11:37:55;;;;;;;;;;;;;;;27.66;38.44;101939.53;10542455;28;19924;-64
2023/05/13 11:43:00;;;;;;;;;;;;;;;28.06;42.34;101942.25;10542416;28;19924;-64
2023/05/13 11:48:19;;;;;;;;;;;;;;;27.43;38.61;101937.56;10541981;28;19924;-64
2023/05/13 11:53:21;;;;;;;;;;;;;;;28.83;38.22;101931.50;10541131;28;19928;-64
2023/05/13 11:58:23;;;;;;;;;;;;;;;28.45;39.20;101931.41;10541703;28;19955;-64
2023/05/13 12:03:26;;;;;;;;;;;;;;;27.08;40.44;101933.41;10522850;28;19924;-64
2023/05/13 12:08:28;;;;;;;;;;;;;;;28.61;39.54;101929.66;10540802;28;19931;-64
2023/05/13 12:13:31;;;;;;;;;;;;;;;29.27;39.08;101925.38;10540353;28;19986;-64
2023/05/13 12:18:33;;;;;;;;;;;;;;;28.25;36.60;101916.75;10540982;28;19924;-64
2023/05/13 12:23:39;;;;;;;;;;;;;;;29.42;35.24;101921.81;10540251;28;20425;-65
2023/05/13 12:28:41;;;;;;;;;;;;;;;28.46;38.60;101924.16;10540680;28;19925;-64
2023/05/13 12:33:45;;;;;;;;;;;;;;;28.86;36.47;101909.53;10540673;28;19924;-64
2023/05/13 12:38:54;;;;;;;;;;;;;;;29.85;37.92;101911.22;10540630;28;19951;-64
2023/05/13 12:43:59;;;;;;;;;;;;;;;28.93;34.92;101911.53;10540437;28;19930;-64
2023/05/13 12:49:02;;;;;;;;;;;;;;;28.21;34.32;101904.63;10539476;28;20282;-64
2023/05/13 12:54:04;;;;;;;;;;;;;;;28.38;35.25;101902.66;10539505;28;19947;-64
2023/05/13 12:59:07;;;;;;;;;;;;;;;28.20;35.06;101900.28;10540064;28;19932;-64
2023/05/13 13:04:09;;;;;;;;;;;;;;;28.35;37.08;101895.81;10521606;28;19928;-64
2023/05/13 13:09:12;;;;;;;;;;;;;;;29.26;34.73;101899.41;10539403;28;19960;-64
2023/05/13 13:14:14;;;;;;;;;;;;;;;28.58;35.49;101901.22;10541464;28;19928;-64
2023/05/13 13:19:16;;;;;;;;;;;;;;;27.86;36.26;101898.78;10547974;28;19931;-64
2023/05/13 13:24:18;;;;;;;;;;;;;;;29.04;37.10;101906.53;10547770;28;19924;-64
2023/05/13 13:29:21;;;;;;;;;;;;;;;28.57;35.52;101898.72;10546829;28;20264;-64
2023/05/13 13:34:23;;;;;;;;;;;;;;;29.03;33.25;101895.91;10547352;28;19928;-64
2023/05/13 13:39:25;;;;;;;;;;;;;;;27.75;32.09;101897.28;10546601;28;19975;-63
2023/05/13 13:44:27;;;;;;;;;;;;;;;28.67;36.72;101886.66;10546979;28;19928;-63
2023/05/13 13:49:30;;;;;;;;;;;;;;;28.99;34.11;101878.47;10546808;28;19946;-64
2023/05/13 13:54:32;;;;;;;;;;;;;;;29.21;33.04;101882.13;10546610;28;19924;-64
2023/05/13 13:59:34;;;;;;;;;;;;;;;28.28;34.54;101881.38;10546447;28;19931;-63
2023/05/13 14:04:37;;;;;;;;;;;;;;;29.15;34.51;101875.59;10545592;28;20398;-64
2023/05/13 14:09:39;;;;;;;;;;;;;;;28.76;33.61;101876.63;10545737;28;19924;-63
2023/05/13 14:14:41;;;;;;;;;;;;;;;29.55;35.87;101870.75;10545827;28;19924;-64
2023/05/13 14:19:43;;;;;;;;;;;;;;;29.67;34.10;101860.31;10545034;28;19924;-64
2023/05/13 14:24:46;;;;;;;;;;;;;;;29.98;34.83;101860.06;10549533;22;19932;-66
2023/05/13 14:29:48;;;;;;;;;;;;;;;29.20;33.56;101854.34;10545154;28;19924;-66
2023/05/13 14:34:50;;;;;;;;;;;;;;;30.15;34.09;101847.16;10544964;28;19938;-66
2023/05/13 14:39:53;;;;;;;;;;;;;;;28.50;33.78;101850.91;10544867;28;19970;-66
2023/05/13 14:44:55;;;;;;;;;;;;;;;27.47;35.87;101848.47;10543925;28;19927;-66
2023/05/13 14:49:57;;;;;;;;;;;;;;;27.66;33.24;101840.00;10544275;28;19969;-66
2023/05/13 14:54:59;;;;;;;;;;;;;;;27.95;32.83;101836.66;10543551;28;19932;-66
2023/05/13 15:00:02;;;;;;;;;;;;;;;28.26;35.86;101830.41;10543409;28;19928;-65
2023/05/13 15:05:04;;;;;;;;;;;;;;;27.14;34.07;101832.47;10543850;28;19973;-66
2023/05/13 15:10:07;;;;;;;;;;;;;;;28.40;32.50;101818.00;10543551;28;19927;-66
2023/05/13 15:15:09;;;;;;;;;;;;;;;28.44;33.98;101823.84;10542769;28;20340;-66
2023/05/13 15:20:12;;;;;;;;;;;;;;;27.93;32.67;101819.03;10542573;28;19947;-66
2023/05/13 15:25:14;;;;;;;;;;;;;;;28.58;36.48;101823.09;10571029;28;19977;-66
2023/05/13 15:30:16;;;;;;;;;;;;;;;28.47;35.95;101818.94;10566170;28;19928;-65
2023/05/13 15:35:18;;;;;;;;;;;;;;;27.03;35.68;101818.38;10584568;28;19973;-65
2023/05/13 15:40:20;;;;;;;;;;;;;;;26.98;34.20;101812.69;10583989;28;20109;-65
2023/05/13 15:45:25;;;;;;;;;;;;;;;27.50;34.62;101807.81;10583006;28;21444;-66
2023/05/13 15:50:27;;;;;;;;;;;;;;;27.56;34.81;101794.50;10583321;28;19929;-66
2023/05/13 15:55:30;;;;;;;;;;;;;;;27.61;35.53;101802.03;10583400;28;19928;-66
2023/05/13 16:00:32;;;;;;;;;;;;;;;27.36;36.71;101801.31;10583809;28;19924;-65
2023/05/13 16:05:35;;;;;;;;;;;;;;;27.35;36.49;101799.63;10583001;28;20466;-65
2023/05/13 16:10:38;;;;;;;;;;;;;;;25.85;37.02;101791.81;10582823;28;20370;-65
2023/05/13 16:15:40;;;;;;;;;;;;;;;26.90;36.55;101788.53;10582622;28;20324;-66
2023/05/13 16:20:42;;;;;;;;;;;;;;;26.16;33.73;101788.56;10583170;28;19924;-65
2023/05/13 16:25:44;;;;;;;;;;;;;;;26.90;37.71;101791.22;10582518;28;19931;-65
2023/05/13 16:30:46;;;;;;;;;;;;;;;26.64;36.93;101794.94;10582880;28;19924;-65
2023/05/13 16:35:49;;;;;;;;;;;;;;;25.84;38.82;101792.84;10582270;28;19923;-65
2023/05/13 16:40:51;;;;;;;;;;;;;;;25.67;39.28;101788.44;10582085;28;20285;-65
2023/05/13 16:45:53;;;;;;;;;;;;;;;25.72;38.98;101784.28;10582196;28;20282;-65
2023/05/13 16:50:55;;;;;;;;;;;;;;;25.73;36.72;101783.25;10589584;28;19924;-65
2023/05/13 16:55:57;;;;;;;;;;;;;;;24.23;40.37;101787.06;10591201;28;19924;-65
2023/05/13 17:01:00;;;;;;;;;;;;;;;25.03;38.07;101783.47;10590585;28;19927;-65
2023/05/13 17:06:02;;;;;;;;;;;;;;;24.18;37.95;101781.34;10590705;28;19924;-65
2023/05/13 17:11:04;;;;;;;;;;;;;;;24.82;39.72;101794.56;10590557;28;19924;-65
2023/05/13 17:16:07;;;;;;;;;;;;;;;24.05;41.05;101786.22;10590402;28;19924;-65
2023/05/13 17:21:09;;;;;;;;;;;;;;;24.20;41.90;101799.91;10590246;28;19927;-65
2023/05/13 17:26:11;;;;;;;;;;;;;;;23.53;41.55;101790.31;10589068;28;19924;-65
2023/05/13 17:31:13;;;;;;;;;;;;;;;23.23;41.73;101793.28;10589762;28;19923;-65
2023/05/13 17:36:16;;;;;;;;;;;;;;;23.19;42.39;101796.25;10571513;28;19973;-65
2023/05/13 17:41:18;;;;;;;;;;;;;;;23.18;43.07;101789.25;10589409;28;19923;-65
2023/05/13 17:46:21;;;;;;;;;;;;;;;23.04;45.10;101787.00;10589191;28;19924;-65
2023/05/13 17:51:23;;;;;;;;;;;;;;;22.46;44.34;101796.00;10588891;28;19972;-65
2023/05/13 17:56:25;;;;;;;;;;;;;;;22.58;46.39;101794.03;10588197;28;19923;-65
2023/05/13 18:01:27;;;;;;;;;;;;;;;22.27;47.23;101796.81;10587704;28;19924;-65
2023/05/13 18:06:30;;;;;;;;;;;;;;;22.14;47.64;101804.22;10587828;28;20297;-65
2023/05/13 18:11:32;;;;;;;;;;;;;;;22.17;47.47;101799.47;10587612;28;19923;-65
2023/05/13 18:16:34;;;;;;;;;;;;;;;21.91;49.32;101798.34;10587419;28;20255;-65
2023/05/13 18:21:36;;;;;;;;;;;;;;;21.74;50.78;101803.34;10587823;28;19924;-65
2023/05/13 18:26:39;;;;;;;;;;;;;;;21.38;52.07;101800.25;10544387;28;19944;-65
2023/05/13 18:31:41;;;;;;;;;;;;;;;21.26;52.77;101810.16;10544085;28;20317;-65
2023/05/13 18:36:44;;;;;;;;;;;;;;;20.75;53.55;101814.50;10548370;28;19924;-65
2023/05/13 18:41:47;;;;;;;;;;;;;;;20.76;53.62;101818.88;10544099;28;19924;-65
2023/05/13 18:46:49;;;;;;;;;;;;;;;20.74;52.46;101818.13;10544568;28;19928;-65
2023/05/13 18:51:51;;;;;;;;;;;;;;;20.28;54.56;101821.97;10543746;28;19924;-66
2023/05/13 18:56:54;;;;;;;;;;;;;;;20.11;55.81;101822.50;10544077;28;19928;-66
2023/05/13 19:01:57;;;;;;;;;;;;;;;19.88;55.18;101819.91;10543891;28;19924;-65
2023/05/13 19:06:59;;;;;;;;;;;;;;;19.73;54.86;101829.91;10543751;28;20027;-65
2023/05/13 19:12:02;;;;;;;;;;;;;;;19.27;58.34;101826.44;10542749;28;19924;-65
2023/05/13 19:17:06;;;;;;;;;;;;;;;19.18;59.67;101821.84;10543323;28;19924;-66
2023/05/13 19:22:09;;;;;;;;;;;;;;;19.10;57.83;101837.53;10543301;28;19967;-66
2023/05/13 19:27:11;;;;;;;;;;;;;;;18.81;59.96;101845.00;10524416;28;19924;-65
2023/05/13 19:32:14;;;;;;;;;;;;;;;18.46;60.34;101853.78;10554327;28;19928;-66
2023/05/13 19:37:16;;;;;;;;;;;;;;;18.36;59.18;101865.09;10582300;28;19924;-66
2023/05/13 19:42:18;;;;;;;;;;;;;;;18.47;61.69;101866.09;10549739;28;19924;-66
2023/05/13 19:47:21;;;;;;;;;;;;;;;18.42;61.08;101868.25;10581819;28;19957;-65
2023/05/13 19:52:23;;;;;;;;;;;;;;;18.56;57.53;101868.94;10583358;28;19976;-66
2023/05/13 19:57:26;;;;;;;;;;;;;;;18.76;57.60;101869.22;10579933;28;19924;-66
2023/05/13 20:02:30;;;;;;;;;;;;;;;18.89;58.52;101870.03;10581595;28;19977;-66
2023/05/13 20:07:33;;;;;;;;;;;;;;;18.66;58.22;101865.56;10582892;28;19923;-65
2023/05/13 20:12:35;;;;;;;;;;;;;;;18.82;60.79;101865.28;10581300;28;20297;-65
2023/05/13 20:17:37;;;;;;;;;;;;;;;18.79;60.37;101862.84;10579832;28;19924;-65
2023/05/13 20:22:40;;;;;;;;;;;;;;;18.87;61.60;101866.66;10582592;28;19966;-65
2023/05/13 20:27:42;;;;;;;;;;;;;;;18.86;63.17;101870.28;10557945;28;19924;-66
2023/05/13 20:32:44;;;;;;;;;;;;;;;18.90;62.50;101863.78;10540708;28;19928;-66
2023/05/13 20:37:46;;;;;;;;;;;;;;;18.82;63.93;101868.78;10538410;28;20373;-66
2023/05/13 20:42:49;;;;;;;;;;;;;;;18.68;63.71;101879.59;10540406;28;19928;-66
2023/05/13 20:47:51;;;;;;;;;;;;;;;18.89;65.02;101879.81;10575099;28;19977;-65
2023/05/13 20:52:53;;;;;;;;;;;;;;;18.73;64.94;101885.41;10581848;28;20328;-66
2023/05/13 20:57:56;;;;;;;;;;;;;;;18.52;65.33;101877.22;10558855;28;19932;-65
2023/05/13 21:02:58;;;;;;;;;;;;;;;18.24;67.51;101886.34;10552272;28;20337;-66
2023/05/13 21:08:00;;;;;;;;;;;;;;;18.37;66.64;101880.06;10541399;28;19928;-65
2023/05/13 21:13:02;;;;;;;;;;;;;;;18.13;67.33;101879.19;10536457;28;19927;-66
2023/05/13 21:18:05;;;;;;;;;;;;;;;18.24;67.57;101879.25;10552113;28;19924;-65
2023/05/13 21:23:07;;;;;;;;;;;;;;;17.95;69.19;101884.84;10540434;28;19924;-64
2023/05/13 21:28:10;;;;;;;;;;;;;;;17.91;67.07;101886.03;10548063;28;19928;-65
2023/05/13 21:33:12;;;;;;;;;;;;;;;17.89;68.98;101889.75;10557114;28;20006;-65
2023/05/13 21:38:14;;;;;;;;;;;;;;;17.73;69.57;101901.38;10584798;28;19924;-65
2023/05/13 21:43:16;;;;;;;;;;;;;;;17.51;70.05;101887.94;10588170;28;19935;-66
2023/05/13 21:48:19;;;;;;;;;;;;;;;17.23;71.14;101896.00;10589135;28;19924;-65
2023/05/13 21:53:21;;;;;;;;;;;;;;;17.18;71.32;101892.81;10586106;28;19924;-66
2023/05/13 21:58:23;;;;;;;;;;;;;;;17.10;72.48;101897.78;10560119;28;19946;-67
2023/05/13 22:03:25;;;;;;;;;;;;;;;16.84;72.45;101899.50;10545515;28;19925;-66
2023/05/13 22:08:28;;;;;;;;;;;;;;;16.94;73.16;101897.13;10528435;28;19924;-66
2023/05/13 22:13:30;;;;;;;;;;;;;;;16.64;75.42;101900.81;10545206;28;19998;-66
2023/05/13 22:18:33;;;;;;;;;;;;;;;16.29;78.63;101901.28;10577909;28;19928;-64
2023/05/13 22:23:35;;;;;;;;;;;;;;;15.98;81.00;101896.16;10551383;28;19923;-65
2023/05/13 22:28:38;;;;;;;;;;;;;;;16.01;82.00;101894.28;10587389;28;19924;-65
2023/05/13 22:33:40;;;;;;;;;;;;;;;15.96;82.07;101899.84;10584013;28;20006;-65
2023/05/13 22:38:44;;;;;;;;;;;;;;;15.90;82.79;101902.88;10557310;28;19924;-65
2023/05/13 22:43:48;;;;;;;;;;;;;;;15.80;84.07;101892.03;10544729;28;19966;-65
2023/05/13 22:48:51;;;;;;;;;;;;;;;16.09;82.96;101884.94;10543139;28;19928;-66
2023/05/13 22:53:53;;;;;;;;;;;;;;;15.85;84.51;101884.66;10544495;28;19924;-66
2023/05/13 22:58:55;;;;;;;;;;;;;;;15.93;83.00;101881.56;10541687;28;19925;-66
2023/05/13 23:03:58;;;;;;;;;;;;;;;15.75;83.76;101884.41;10561000;28;19924;-66
2023/05/13 23:09:00;;;;;;;;;;;;;;;16.02;82.48;101872.19;10582745;28;20083;-65
2023/05/13 23:14:02;;;;;;;;;;;;;;;15.94;82.56;101877.97;10583903;28;20362;-66
2023/05/13 23:19:04;;;;;;;;;;;;;;;15.69;84.15;101876.81;10534176;28;19924;-66
2023/05/13 23:24:07;;;;;;;;;;;;;;;15.69;83.64;101876.00;10551660;28;19972;-66
2023/05/13 23:29:09;;;;;;;;;;;;;;;15.71;83.78;101877.56;10578834;28;19923;-66
2023/05/13 23:34:11;;;;;;;;;;;;;;;15.53;83.86;101868.16;10583737;28;19928;-66
2023/05/13 23:39:13;;;;;;;;;;;;;;;15.19;85.73;101870.19;10557853;28;19924;-66
2023/05/13 23:44:16;;;;;;;;;;;;;;;15.16;86.96;101868.59;10582670;28;20236;-66
2023/05/13 23:49:18;;;;;;;;;;;;;;;15.23;84.58;101869.94;10563954;28;19949;-66
2023/05/13 23:54:20;;;;;;;;;;;;;;;14.82;87.48;101867.94;10584123;28;19934;-66
2023/05/13 23:59:22;;;;;;;;;;;;;;;15.04;86.17;101856.13;10546865;28;19924;-66
